createdAt,value
2022-09-23T00:01:30.946Z,73.94
2022-09-23T00:04:00.073Z,74.41
2022-09-23T00:06:31.350Z,74.39
2022-09-23T00:08:59.649Z,74.47
2022-09-23T00:11:29.235Z,74.51
2022-09-23T00:14:00.909Z,75.10
2022-09-23T00:16:35.356Z,75.28
2022-09-23T00:19:04.631Z,75.45
2022-09-23T00:21:32.837Z,75.32
2022-09-23T00:24:02.195Z,75.53
2022-09-23T00:26:30.668Z,75.30
2022-09-23T00:28:58.993Z,76.07
2022-09-23T00:31:27.829Z,76.31
2022-09-23T00:33:58.148Z,75.47
2022-09-23T00:36:28.856Z,75.79
2022-09-23T00:38:57.296Z,76.32
2022-09-23T00:41:26.709Z,76.86
2022-09-23T00:43:59.901Z,76.75
2022-09-23T00:46:34.799Z,76.57
2022-09-23T00:49:29.769Z,76.40
2022-09-23T00:52:12.314Z,76.83
2022-09-23T00:54:41.605Z,76.96
2022-09-23T00:57:11.754Z,76.49
2022-09-23T00:59:40.134Z,76.87
2022-09-23T01:02:10.078Z,76.97
2022-09-23T01:04:38.853Z,76.83
2022-09-23T01:07:07.213Z,77.15
2022-09-23T01:09:36.295Z,76.91
2022-09-23T01:12:22.129Z,76.74
2022-09-23T01:15:17.851Z,77.25
2022-09-23T01:18:22.198Z,77.27
2022-09-23T01:21:13.554Z,77.25
2022-09-23T01:23:53.514Z,76.92
2022-09-23T01:26:25.079Z,76.44
2022-09-23T01:29:21.475Z,76.55
2022-09-23T01:32:13.599Z,76.42
2022-09-23T01:35:14.073Z,75.99
2022-09-23T01:37:56.515Z,76.52
2022-09-23T01:40:42.984Z,76.43
2022-09-23T01:43:22.794Z,75.61
2022-09-23T01:45:57.154Z,75.80
2022-09-23T01:48:36.106Z,75.87
2022-09-23T01:51:15.034Z,76.80
2022-09-23T01:54:09.397Z,76.15
2022-09-23T01:56:44.273Z,76.43
2022-09-23T01:59:18.713Z,76.13
2022-09-23T02:01:58.582Z,75.95
2022-09-23T02:04:46.397Z,76.51
2022-09-23T02:07:20.735Z,76.92
2022-09-23T02:10:01.191Z,76.89
2022-09-23T02:12:34.750Z,77.30
2022-09-23T02:15:16.719Z,76.88
2022-09-23T02:18:16.606Z,75.56
2022-09-23T02:20:45.729Z,76.99
2022-09-23T02:23:20.730Z,78.41
2022-09-23T02:26:35.851Z,79.66
2022-09-23T02:29:27.769Z,79.47
2022-09-23T02:32:16.412Z,78.94
2022-09-23T02:34:47.809Z,78.24
2022-09-23T02:37:19.375Z,78.64
2022-09-23T02:40:23.673Z,78.68
2022-09-23T02:42:58.093Z,78.66
2022-09-23T02:45:26.409Z,78.58
2022-09-23T02:48:02.769Z,78.53
2022-09-23T02:50:32.492Z,78.50
2022-09-23T02:53:01.409Z,78.78
2022-09-23T02:55:34.210Z,78.68
2022-09-23T02:58:06.210Z,78.90
2022-09-23T03:01:06.480Z,79.20
2022-09-23T03:04:08.089Z,78.60
2022-09-23T03:06:52.037Z,79.22
2022-09-23T03:09:33.090Z,78.23
2022-09-23T03:12:35.009Z,78.70
2022-09-23T03:15:19.488Z,78.32
2022-09-23T03:18:04.384Z,78.55
2022-09-23T03:20:39.853Z,78.68
2022-09-23T03:23:11.649Z,79.58
2022-09-23T03:25:45.119Z,79.51
2022-09-23T03:28:16.492Z,78.83
2022-09-23T03:30:45.208Z,78.04
2022-09-23T03:33:17.608Z,79.06
2022-09-23T03:36:11.929Z,80.16
2022-09-23T03:38:45.849Z,80.14
2022-09-23T03:41:18.370Z,79.36
2022-09-23T03:43:46.888Z,79.13
2022-09-23T03:46:17.543Z,78.42
2022-09-23T03:48:46.604Z,78.25
2022-09-23T03:51:23.172Z,79.21
2022-09-23T03:53:51.633Z,79.55
2022-09-23T03:56:19.789Z,79.23
2022-09-23T03:58:49.589Z,80.12
2022-09-23T04:01:18.105Z,80.64
2022-09-23T04:03:46.189Z,80.69
2022-09-23T04:06:14.393Z,80.25
2022-09-23T04:08:42.874Z,81.30
2022-09-23T04:11:11.553Z,81.34
2022-09-23T04:13:39.834Z,81.96
2022-09-23T04:16:08.429Z,81.75
2022-09-23T04:18:37.177Z,82.64
2022-09-23T04:21:05.667Z,82.29
2022-09-23T04:23:33.904Z,82.09
2022-09-23T04:26:02.585Z,82.20
2022-09-23T04:28:30.865Z,82.70
2022-09-23T04:30:59.706Z,82.33
